sensor_id;sensor_type;location;lat;lon;timestamp;temperature;humidity
43087;DHT22;28708;52.224;6.924;2022-07-23T00:00:53;16.40;99.90
43087;DHT22;28708;52.224;6.924;2022-07-23T00:03:19;16.40;99.90
43087;DHT22;28708;52.224;6.924;2022-07-23T00:05:45;16.40;99.90
43087;DHT22;28708;52.224;6.924;2022-07-23T00:08:11;16.50;99.90
43087;DHT22;28708;52.224;6.924;2022-07-23T00:10:37;16.40;99.90
43087;DHT22;28708;52.224;6.924;2022-07-23T00:13:03;16.40;99.90
43087;DHT22;28708;52.224;6.924;2022-07-23T00:15:29;16.40;99.90
43087;DHT22;28708;52.224;6.924;2022-07-23T00:17:54;16.40;99.90
43087;DHT22;28708;52.224;6.924;2022-07-23T00:20:20;16.40;99.90
43087;DHT22;28708;52.224;6.924;2022-07-23T00:22:48;16.40;99.90
43087;DHT22;28708;52.224;6.924;2022-07-23T00:25:14;16.50;99.90
43087;DHT22;28708;52.224;6.924;2022-07-23T00:27:40;16.50;99.90
43087;DHT22;28708;52.224;6.924;2022-07-23T00:30:06;16.40;99.90
43087;DHT22;28708;52.224;6.924;2022-07-23T00:32:32;16.40;99.90
43087;DHT22;28708;52.224;6.924;2022-07-23T00:35:09;16.30;99.90
43087;DHT22;28708;52.224;6.924;2022-07-23T00:37:35;16.20;99.90
43087;DHT22;28708;52.224;6.924;2022-07-23T00:40:01;16.20;99.90
43087;DHT22;28708;52.224;6.924;2022-07-23T00:42:27;16.10;99.90
43087;DHT22;28708;52.224;6.924;2022-07-23T00:44:53;16.10;99.90
43087;DHT22;28708;52.224;6.924;2022-07-23T00:47:18;16.10;99.90
43087;DHT22;28708;52.224;6.924;2022-07-23T00:49:44;16.00;99.90
43087;DHT22;28708;52.224;6.924;2022-07-23T00:52:10;15.90;99.90
43087;DHT22;28708;52.224;6.924;2022-07-23T00:54:36;15.80;99.90
43087;DHT22;28708;52.224;6.924;2022-07-23T00:57:02;15.70;99.90
43087;DHT22;28708;52.224;6.924;2022-07-23T00:59:28;15.70;99.90
43087;DHT22;28708;52.224;6.924;2022-07-23T01:01:56;15.60;99.90
43087;DHT22;28708;52.224;6.924;2022-07-23T01:04:22;15.50;99.90
43087;DHT22;28708;52.224;6.924;2022-07-23T01:06:47;15.50;99.90
43087;DHT22;28708;52.224;6.924;2022-07-23T01:09:13;15.40;99.90
43087;DHT22;28708;52.224;6.924;2022-07-23T01:11:41;15.40;99.90
43087;DHT22;28708;52.224;6.924;2022-07-23T01:14:16;15.50;99.90
43087;DHT22;28708;52.224;6.924;2022-07-23T01:16:43;15.50;99.90
43087;DHT22;28708;52.224;6.924;2022-07-23T01:19:10;15.40;99.90
43087;DHT22;28708;52.224;6.924;2022-07-23T01:21:39;15.40;99.90
43087;DHT22;28708;52.224;6.924;2022-07-23T01:24:05;15.40;99.90
43087;DHT22;28708;52.224;6.924;2022-07-23T01:26:34;15.30;99.90
43087;DHT22;28708;52.224;6.924;2022-07-23T01:29:00;15.30;99.90
43087;DHT22;28708;52.224;6.924;2022-07-23T01:31:26;15.20;99.90
43087;DHT22;28708;52.224;6.924;2022-07-23T01:33:52;15.30;99.90
43087;DHT22;28708;52.224;6.924;2022-07-23T01:36:18;15.30;99.90
43087;DHT22;28708;52.224;6.924;2022-07-23T01:38:44;15.20;99.90
43087;DHT22;28708;52.224;6.924;2022-07-23T01:41:10;15.20;99.90
43087;DHT22;28708;52.224;6.924;2022-07-23T01:43:36;15.20;99.90
43087;DHT22;28708;52.224;6.924;2022-07-23T01:46:03;15.20;99.90
43087;DHT22;28708;52.224;6.924;2022-07-23T01:48:35;15.20;99.90
43087;DHT22;28708;52.224;6.924;2022-07-23T01:51:21;15.10;99.90
43087;DHT22;28708;52.224;6.924;2022-07-23T01:53:56;15.10;99.90
43087;DHT22;28708;52.224;6.924;2022-07-23T01:56:22;15.10;99.90
43087;DHT22;28708;52.224;6.924;2022-07-23T01:58:49;15.10;99.90
43087;DHT22;28708;52.224;6.924;2022-07-23T02:01:15;15.10;99.90
43087;DHT22;28708;52.224;6.924;2022-07-23T02:03:41;15.00;99.90
43087;DHT22;28708;52.224;6.924;2022-07-23T02:06:06;15.00;99.90
43087;DHT22;28708;52.224;6.924;2022-07-23T02:08:33;14.90;99.90
43087;DHT22;28708;52.224;6.924;2022-07-23T02:11:01;14.90;99.90
43087;DHT22;28708;52.224;6.924;2022-07-23T02:13:26;14.90;99.90
43087;DHT22;28708;52.224;6.924;2022-07-23T02:15:54;14.90;99.90
43087;DHT22;28708;52.224;6.924;2022-07-23T02:18:20;14.90;99.90
43087;DHT22;28708;52.224;6.924;2022-07-23T02:20:45;14.90;99.90
43087;DHT22;28708;52.224;6.924;2022-07-23T02:23:11;14.90;99.90
43087;DHT22;28708;52.224;6.924;2022-07-23T02:25:37;14.80;99.90
43087;DHT22;28708;52.224;6.924;2022-07-23T02:28:05;14.70;99.90
43087;DHT22;28708;52.224;6.924;2022-07-23T02:30:31;14.70;99.90
43087;DHT22;28708;52.224;6.924;2022-07-23T02:32:58;14.70;99.90
43087;DHT22;28708;52.224;6.924;2022-07-23T02:35:24;14.60;99.90
43087;DHT22;28708;52.224;6.924;2022-07-23T02:37:50;14.60;99.90
43087;DHT22;28708;52.224;6.924;2022-07-23T02:40:17;14.60;99.90
43087;DHT22;28708;52.224;6.924;2022-07-23T02:42:43;14.60;99.90
43087;DHT22;28708;52.224;6.924;2022-07-23T02:45:10;14.70;99.90
43087;DHT22;28708;52.224;6.924;2022-07-23T02:47:36;14.70;99.90
43087;DHT22;28708;52.224;6.924;2022-07-23T02:50:02;14.70;99.90
43087;DHT22;28708;52.224;6.924;2022-07-23T02:52:30;14.70;99.90
43087;DHT22;28708;52.224;6.924;2022-07-23T02:54:56;14.70;99.90
43087;DHT22;28708;52.224;6.924;2022-07-23T02:57:21;14.60;99.90
43087;DHT22;28708;52.224;6.924;2022-07-23T02:59:47;14.50;99.90
43087;DHT22;28708;52.224;6.924;2022-07-23T03:02:13;14.50;99.90
43087;DHT22;28708;52.224;6.924;2022-07-23T03:04:39;14.50;99.90
43087;DHT22;28708;52.224;6.924;2022-07-23T03:07:08;14.40;99.90
43087;DHT22;28708;52.224;6.924;2022-07-23T03:09:34;14.40;99.90
43087;DHT22;28708;52.224;6.924;2022-07-23T03:12:00;14.40;99.90
43087;DHT22;28708;52.224;6.924;2022-07-23T03:14:26;14.40;99.90
43087;DHT22;28708;52.224;6.924;2022-07-23T03:16:53;14.40;99.90
43087;DHT22;28708;52.224;6.924;2022-07-23T03:19:20;14.40;99.90
43087;DHT22;28708;52.224;6.924;2022-07-23T03:21:46;14.30;99.90
43087;DHT22;28708;52.224;6.924;2022-07-23T03:24:12;14.30;99.90
43087;DHT22;28708;52.224;6.924;2022-07-23T03:26:38;14.40;99.90
43087;DHT22;28708;52.224;6.924;2022-07-23T03:29:05;14.40;99.90
43087;DHT22;28708;52.224;6.924;2022-07-23T03:31:31;14.40;99.90
43087;DHT22;28708;52.224;6.924;2022-07-23T03:33:57;14.30;99.90
43087;DHT22;28708;52.224;6.924;2022-07-23T03:36:24;14.20;99.90
43087;DHT22;28708;52.224;6.924;2022-07-23T03:38:52;14.20;99.90
43087;DHT22;28708;52.224;6.924;2022-07-23T03:41:19;14.20;99.90
43087;DHT22;28708;52.224;6.924;2022-07-23T03:43:45;14.20;99.90
43087;DHT22;28708;52.224;6.924;2022-07-23T03:46:11;14.20;99.90
43087;DHT22;28708;52.224;6.924;2022-07-23T03:48:38;14.20;99.90
43087;DHT22;28708;52.224;6.924;2022-07-23T03:51:04;14.20;99.90
43087;DHT22;28708;52.224;6.924;2022-07-23T03:53:29;14.20;99.90
43087;DHT22;28708;52.224;6.924;2022-07-23T03:55:55;14.20;99.90
43087;DHT22;28708;52.224;6.924;2022-07-23T03:58:22;14.10;99.90
43087;DHT22;28708;52.224;6.924;2022-07-23T04:00:48;14.10;99.90
43087;DHT22;28708;52.224;6.924;2022-07-23T04:03:15;14.10;99.90
43087;DHT22;28708;52.224;6.924;2022-07-23T04:05:41;14.10;99.90
43087;DHT22;28708;52.224;6.924;2022-07-23T04:08:11;14.20;99.90
43087;DHT22;28708;52.224;6.924;2022-07-23T04:10:40;14.20;99.90
43087;DHT22;28708;52.224;6.924;2022-07-23T04:13:07;14.20;99.90
43087;DHT22;28708;52.224;6.924;2022-07-23T04:15:33;14.20;99.90
43087;DHT22;28708;52.224;6.924;2022-07-23T04:17:59;14.20;99.90
43087;DHT22;28708;52.224;6.924;2022-07-23T04:20:33;14.20;99.90
43087;DHT22;28708;52.224;6.924;2022-07-23T04:23:02;14.10;99.90
43087;DHT22;28708;52.224;6.924;2022-07-23T04:25:27;14.20;99.90
43087;DHT22;28708;52.224;6.924;2022-07-23T04:27:53;14.20;99.90
43087;DHT22;28708;52.224;6.924;2022-07-23T04:30:19;14.20;99.90
43087;DHT22;28708;52.224;6.924;2022-07-23T04:32:45;14.20;99.90
43087;DHT22;28708;52.224;6.924;2022-07-23T04:35:18;14.20;99.90
43087;DHT22;28708;52.224;6.924;2022-07-23T04:37:44;14.20;99.90
43087;DHT22;28708;52.224;6.924;2022-07-23T04:40:11;14.10;99.90
43087;DHT22;28708;52.224;6.924;2022-07-23T04:42:37;14.10;99.90
43087;DHT22;28708;52.224;6.924;2022-07-23T04:45:04;14.20;99.90
43087;DHT22;28708;52.224;6.924;2022-07-23T04:47:30;14.30;99.90
43087;DHT22;28708;52.224;6.924;2022-07-23T04:49:57;14.30;99.90
43087;DHT22;28708;52.224;6.924;2022-07-23T04:52:24;14.40;99.90
43087;DHT22;28708;52.224;6.924;2022-07-23T04:54:50;14.40;99.90
43087;DHT22;28708;52.224;6.924;2022-07-23T04:57:16;14.50;99.90
43087;DHT22;28708;52.224;6.924;2022-07-23T04:59:42;14.50;99.90
43087;DHT22;28708;52.224;6.924;2022-07-23T05:02:09;14.50;99.90
43087;DHT22;28708;52.224;6.924;2022-07-23T05:04:35;14.60;99.90
43087;DHT22;28708;52.224;6.924;2022-07-23T05:07:01;14.60;99.90
43087;DHT22;28708;52.224;6.924;2022-07-23T05:09:27;14.60;99.90
43087;DHT22;28708;52.224;6.924;2022-07-23T05:11:53;14.60;99.90
43087;DHT22;28708;52.224;6.924;2022-07-23T05:14:20;14.60;99.90
43087;DHT22;28708;52.224;6.924;2022-07-23T05:16:46;14.70;99.90
43087;DHT22;28708;52.224;6.924;2022-07-23T05:19:18;14.70;99.90
43087;DHT22;28708;52.224;6.924;2022-07-23T05:21:45;14.80;99.90
43087;DHT22;28708;52.224;6.924;2022-07-23T05:24:11;14.70;99.90
43087;DHT22;28708;52.224;6.924;2022-07-23T05:26:37;14.80;99.90
43087;DHT22;28708;52.224;6.924;2022-07-23T05:29:03;14.90;99.90
43087;DHT22;28708;52.224;6.924;2022-07-23T05:31:29;14.90;99.90
43087;DHT22;28708;52.224;6.924;2022-07-23T05:33:55;14.90;99.90
43087;DHT22;28708;52.224;6.924;2022-07-23T05:36:21;15.00;99.90
43087;DHT22;28708;52.224;6.924;2022-07-23T05:38:53;15.00;99.90
43087;DHT22;28708;52.224;6.924;2022-07-23T05:41:19;15.10;99.90
43087;DHT22;28708;52.224;6.924;2022-07-23T05:43:45;15.20;99.90
43087;DHT22;28708;52.224;6.924;2022-07-23T05:46:11;15.20;99.90
43087;DHT22;28708;52.224;6.924;2022-07-23T05:48:40;15.20;99.90
43087;DHT22;28708;52.224;6.924;2022-07-23T05:51:23;15.20;99.90
43087;DHT22;28708;52.224;6.924;2022-07-23T05:53:50;15.20;99.90
43087;DHT22;28708;52.224;6.924;2022-07-23T05:56:21;15.30;99.90
43087;DHT22;28708;52.224;6.924;2022-07-23T05:58:46;15.40;99.90
43087;DHT22;28708;52.224;6.924;2022-07-23T06:01:15;15.40;99.90
43087;DHT22;28708;52.224;6.924;2022-07-23T06:03:57;15.40;99.90
43087;DHT22;28708;52.224;6.924;2022-07-23T06:06:30;15.50;99.90
43087;DHT22;28708;52.224;6.924;2022-07-23T06:08:56;15.50;99.90
43087;DHT22;28708;52.224;6.924;2022-07-23T06:11:22;15.70;99.90
43087;DHT22;28708;52.224;6.924;2022-07-23T06:13:47;15.70;99.90
43087;DHT22;28708;52.224;6.924;2022-07-23T06:16:13;15.70;99.90
43087;DHT22;28708;52.224;6.924;2022-07-23T06:18:39;15.80;99.90
43087;DHT22;28708;52.224;6.924;2022-07-23T06:21:05;15.80;99.90
43087;DHT22;28708;52.224;6.924;2022-07-23T06:23:32;15.90;99.90
43087;DHT22;28708;52.224;6.924;2022-07-23T06:25:58;15.90;99.90
43087;DHT22;28708;52.224;6.924;2022-07-23T06:28:23;16.00;99.90
43087;DHT22;28708;52.224;6.924;2022-07-23T06:30:50;16.10;99.90
43087;DHT22;28708;52.224;6.924;2022-07-23T06:33:15;16.00;99.90
43087;DHT22;28708;52.224;6.924;2022-07-23T06:35:43;16.00;99.90
43087;DHT22;28708;52.224;6.924;2022-07-23T06:38:09;16.10;99.90
43087;DHT22;28708;52.224;6.924;2022-07-23T06:40:35;16.20;99.90
43087;DHT22;28708;52.224;6.924;2022-07-23T06:43:01;16.30;99.90
43087;DHT22;28708;52.224;6.924;2022-07-23T06:45:27;16.40;99.90
43087;DHT22;28708;52.224;6.924;2022-07-23T06:47:53;16.40;99.90
43087;DHT22;28708;52.224;6.924;2022-07-23T06:50:19;16.50;99.90
43087;DHT22;28708;52.224;6.924;2022-07-23T06:52:45;16.60;99.90
43087;DHT22;28708;52.224;6.924;2022-07-23T06:55:10;16.60;99.90
43087;DHT22;28708;52.224;6.924;2022-07-23T06:57:37;16.70;99.90
43087;DHT22;28708;52.224;6.924;2022-07-23T07:00:05;16.70;99.90
43087;DHT22;28708;52.224;6.924;2022-07-23T07:02:31;16.80;99.90
43087;DHT22;28708;52.224;6.924;2022-07-23T07:04:58;16.90;99.90
43087;DHT22;28708;52.224;6.924;2022-07-23T07:07:24;17.00;99.90
43087;DHT22;28708;52.224;6.924;2022-07-23T07:09:50;17.10;99.90
43087;DHT22;28708;52.224;6.924;2022-07-23T07:12:16;17.10;99.90
43087;DHT22;28708;52.224;6.924;2022-07-23T07:14:41;17.20;99.90
43087;DHT22;28708;52.224;6.924;2022-07-23T07:17:07;17.20;99.90
43087;DHT22;28708;52.224;6.924;2022-07-23T07:19:33;17.30;99.90
43087;DHT22;28708;52.224;6.924;2022-07-23T07:21:59;17.50;99.90
43087;DHT22;28708;52.224;6.924;2022-07-23T07:24:25;17.60;99.90
43087;DHT22;28708;52.224;6.924;2022-07-23T07:26:51;17.70;99.90
43087;DHT22;28708;52.224;6.924;2022-07-23T07:29:17;17.70;99.90
43087;DHT22;28708;52.224;6.924;2022-07-23T07:31:42;17.90;99.90
43087;DHT22;28708;52.224;6.924;2022-07-23T07:34:08;17.90;99.90
43087;DHT22;28708;52.224;6.924;2022-07-23T07:36:34;17.90;99.90
43087;DHT22;28708;52.224;6.924;2022-07-23T07:39:04;18.00;99.90
43087;DHT22;28708;52.224;6.924;2022-07-23T07:41:31;18.20;99.90
43087;DHT22;28708;52.224;6.924;2022-07-23T07:43:57;18.40;99.90
43087;DHT22;28708;52.224;6.924;2022-07-23T07:46:22;18.50;99.90
43087;DHT22;28708;52.224;6.924;2022-07-23T07:48:52;18.70;99.90
43087;DHT22;28708;52.224;6.924;2022-07-23T07:51:18;18.80;99.90
43087;DHT22;28708;52.224;6.924;2022-07-23T07:53:44;19.00;99.90
43087;DHT22;28708;52.224;6.924;2022-07-23T07:56:10;19.20;99.90
43087;DHT22;28708;52.224;6.924;2022-07-23T07:58:35;19.10;99.90
43087;DHT22;28708;52.224;6.924;2022-07-23T08:01:01;18.90;99.90
43087;DHT22;28708;52.224;6.924;2022-07-23T08:03:28;18.90;99.90
43087;DHT22;28708;52.224;6.924;2022-07-23T08:05:54;19.00;99.90
43087;DHT22;28708;52.224;6.924;2022-07-23T08:08:20;19.00;99.90
43087;DHT22;28708;52.224;6.924;2022-07-23T08:10:46;18.70;99.90
43087;DHT22;28708;52.224;6.924;2022-07-23T08:13:14;18.60;99.90
43087;DHT22;28708;52.224;6.924;2022-07-23T08:15:40;18.80;99.90
43087;DHT22;28708;52.224;6.924;2022-07-23T08:18:06;19.10;99.90
43087;DHT22;28708;52.224;6.924;2022-07-23T08:20:32;19.30;99.90
43087;DHT22;28708;52.224;6.924;2022-07-23T08:23:03;19.40;99.90
43087;DHT22;28708;52.224;6.924;2022-07-23T08:25:42;19.40;99.90
43087;DHT22;28708;52.224;6.924;2022-07-23T08:28:10;19.40;99.90
43087;DHT22;28708;52.224;6.924;2022-07-23T08:30:37;19.30;99.90
43087;DHT22;28708;52.224;6.924;2022-07-23T08:33:05;19.10;99.90
43087;DHT22;28708;52.224;6.924;2022-07-23T08:35:36;19.30;99.90
43087;DHT22;28708;52.224;6.924;2022-07-23T08:38:04;19.60;99.90
43087;DHT22;28708;52.224;6.924;2022-07-23T08:40:36;19.80;99.90
43087;DHT22;28708;52.224;6.924;2022-07-23T08:43:05;20.30;99.90
43087;DHT22;28708;52.224;6.924;2022-07-23T08:45:39;21.10;99.90
43087;DHT22;28708;52.224;6.924;2022-07-23T08:48:08;21.30;99.90
43087;DHT22;28708;52.224;6.924;2022-07-23T08:50:37;21.90;99.90
43087;DHT22;28708;52.224;6.924;2022-07-23T08:53:06;23.50;99.90
43087;DHT22;28708;52.224;6.924;2022-07-23T08:55:32;24.90;99.90
43087;DHT22;28708;52.224;6.924;2022-07-23T08:57:58;25.70;99.90
43087;DHT22;28708;52.224;6.924;2022-07-23T09:00:23;24.80;99.90
43087;DHT22;28708;52.224;6.924;2022-07-23T09:02:50;23.10;99.90
43087;DHT22;28708;52.224;6.924;2022-07-23T09:05:17;22.20;99.90
43087;DHT22;28708;52.224;6.924;2022-07-23T09:16:06;24.40;99.90
43087;DHT22;28708;52.224;6.924;2022-07-23T09:21:25;22.50;99.90
43087;DHT22;28708;52.224;6.924;2022-07-23T09:26:43;25.00;99.90
43087;DHT22;28708;52.224;6.924;2022-07-23T09:29:17;26.30;99.60
43087;DHT22;28708;52.224;6.924;2022-07-23T09:34:25;27.70;93.70
43087;DHT22;28708;52.224;6.924;2022-07-23T09:36:57;28.30;91.60
43087;DHT22;28708;52.224;6.924;2022-07-23T09:39:31;27.40;90.40
43087;DHT22;28708;52.224;6.924;2022-07-23T09:42:12;26.70;90.70
43087;DHT22;28708;52.224;6.924;2022-07-23T09:44:46;26.90;92.40
43087;DHT22;28708;52.224;6.924;2022-07-23T09:47:12;27.60;90.50
43087;DHT22;28708;52.224;6.924;2022-07-23T09:49:38;27.90;88.70
43087;DHT22;28708;52.224;6.924;2022-07-23T09:52:06;27.80;86.90
43087;DHT22;28708;52.224;6.924;2022-07-23T09:54:39;28.00;86.90
43087;DHT22;28708;52.224;6.924;2022-07-23T09:57:10;28.60;84.80
43087;DHT22;28708;52.224;6.924;2022-07-23T09:59:39;28.30;85.60
43087;DHT22;28708;52.224;6.924;2022-07-23T10:02:08;28.60;84.50
43087;DHT22;28708;52.224;6.924;2022-07-23T10:04:45;28.70;82.10
43087;DHT22;28708;52.224;6.924;2022-07-23T10:07:27;28.90;78.20
43087;DHT22;28708;52.224;6.924;2022-07-23T10:10:31;28.40;79.30
43087;DHT22;28708;52.224;6.924;2022-07-23T10:13:27;28.40;80.20
43087;DHT22;28708;52.224;6.924;2022-07-23T10:15:56;28.80;78.20
43087;DHT22;28708;52.224;6.924;2022-07-23T10:18:23;28.20;79.40
43087;DHT22;28708;52.224;6.924;2022-07-23T10:20:49;28.80;78.30
43087;DHT22;28708;52.224;6.924;2022-07-23T10:23:41;29.10;77.30
43087;DHT22;28708;52.224;6.924;2022-07-23T10:26:38;28.70;76.00
43087;DHT22;28708;52.224;6.924;2022-07-23T10:32:36;27.00;80.70
43087;DHT22;28708;52.224;6.924;2022-07-23T10:35:25;26.10;85.20
43087;DHT22;28708;52.224;6.924;2022-07-23T10:38:00;27.40;81.60
43087;DHT22;28708;52.224;6.924;2022-07-23T10:40:27;27.10;80.00
43087;DHT22;28708;52.224;6.924;2022-07-23T10:42:58;27.80;81.40
43087;DHT22;28708;52.224;6.924;2022-07-23T10:45:33;28.30;78.20
43087;DHT22;28708;52.224;6.924;2022-07-23T10:50:38;27.30;79.80
43087;DHT22;28708;52.224;6.924;2022-07-23T10:53:14;26.70;81.40
43087;DHT22;28708;52.224;6.924;2022-07-23T10:55:44;27.00;80.40
43087;DHT22;28708;52.224;6.924;2022-07-23T10:58:10;27.40;80.00
43087;DHT22;28708;52.224;6.924;2022-07-23T11:00:37;27.60;80.30
43087;DHT22;28708;52.224;6.924;2022-07-23T11:03:05;28.20;77.30
43087;DHT22;28708;52.224;6.924;2022-07-23T11:05:42;28.30;78.00
43087;DHT22;28708;52.224;6.924;2022-07-23T11:34:45;27.30;80.90
43087;DHT22;28708;52.224;6.924;2022-07-23T11:39:57;27.20;79.50
43087;DHT22;28708;52.224;6.924;2022-07-23T11:42:23;27.00;82.20
43087;DHT22;28708;52.224;6.924;2022-07-23T11:44:50;26.10;83.00
43087;DHT22;28708;52.224;6.924;2022-07-23T11:47:24;25.30;87.60
43087;DHT22;28708;52.224;6.924;2022-07-23T11:49:55;25.00;88.90
43087;DHT22;28708;52.224;6.924;2022-07-23T11:52:21;24.90;90.70
43087;DHT22;28708;52.224;6.924;2022-07-23T11:55:03;24.70;91.80
43087;DHT22;28708;52.224;6.924;2022-07-23T11:57:31;24.60;91.60
43087;DHT22;28708;52.224;6.924;2022-07-23T12:00:04;24.40;93.10
43087;DHT22;28708;52.224;6.924;2022-07-23T12:02:43;24.50;93.30
43087;DHT22;28708;52.224;6.924;2022-07-23T12:05:21;24.30;92.50
43087;DHT22;28708;52.224;6.924;2022-07-23T12:07:50;24.40;93.60
43087;DHT22;28708;52.224;6.924;2022-07-23T12:10:19;24.60;93.20
43087;DHT22;28708;52.224;6.924;2022-07-23T12:12:47;24.30;93.20
43087;DHT22;28708;52.224;6.924;2022-07-23T12:15:16;24.50;93.60
43087;DHT22;28708;52.224;6.924;2022-07-23T12:17:45;24.40;93.80
43087;DHT22;28708;52.224;6.924;2022-07-23T12:20:26;24.50;93.80
43087;DHT22;28708;52.224;6.924;2022-07-23T12:22:56;24.50;94.30
43087;DHT22;28708;52.224;6.924;2022-07-23T12:25:25;24.40;93.90
43087;DHT22;28708;52.224;6.924;2022-07-23T12:28:05;24.60;94.10
43087;DHT22;28708;52.224;6.924;2022-07-23T12:30:43;24.40;93.60
43087;DHT22;28708;52.224;6.924;2022-07-23T12:33:14;24.50;95.40
43087;DHT22;28708;52.224;6.924;2022-07-23T12:35:43;24.60;95.20
43087;DHT22;28708;52.224;6.924;2022-07-23T12:38:12;24.60;94.70
43087;DHT22;28708;52.224;6.924;2022-07-23T12:40:50;24.30;94.70
43087;DHT22;28708;52.224;6.924;2022-07-23T12:48:52;24.90;95.10
43087;DHT22;28708;52.224;6.924;2022-07-23T12:51:24;24.40;95.30
43087;DHT22;28708;52.224;6.924;2022-07-23T12:53:53;24.50;96.20
43087;DHT22;28708;52.224;6.924;2022-07-23T12:56:32;24.70;96.20
43087;DHT22;28708;52.224;6.924;2022-07-23T12:59:09;24.90;96.20
43087;DHT22;28708;52.224;6.924;2022-07-23T13:01:40;25.10;95.30
43087;DHT22;28708;52.224;6.924;2022-07-23T13:04:11;25.10;95.10
43087;DHT22;28708;52.224;6.924;2022-07-23T13:06:40;24.80;95.10
43087;DHT22;28708;52.224;6.924;2022-07-23T13:09:09;25.00;95.90
43087;DHT22;28708;52.224;6.924;2022-07-23T13:11:36;25.20;96.40
43087;DHT22;28708;52.224;6.924;2022-07-23T13:14:02;24.70;95.50
43087;DHT22;28708;52.224;6.924;2022-07-23T13:16:29;24.30;96.50
43087;DHT22;28708;52.224;6.924;2022-07-23T13:18:55;24.50;98.30
43087;DHT22;28708;52.224;6.924;2022-07-23T13:21:25;25.20;97.10
43087;DHT22;28708;52.224;6.924;2022-07-23T13:23:51;25.00;98.00
43087;DHT22;28708;52.224;6.924;2022-07-23T13:26:17;25.00;97.10
43087;DHT22;28708;52.224;6.924;2022-07-23T13:28:43;24.50;97.50
43087;DHT22;28708;52.224;6.924;2022-07-23T13:31:09;24.20;99.20
43087;DHT22;28708;52.224;6.924;2022-07-23T13:33:36;24.10;99.90
43087;DHT22;28708;52.224;6.924;2022-07-23T13:36:02;24.10;99.90
43087;DHT22;28708;52.224;6.924;2022-07-23T13:38:29;24.10;99.90
43087;DHT22;28708;52.224;6.924;2022-07-23T13:40:54;23.90;99.90
43087;DHT22;28708;52.224;6.924;2022-07-23T13:43:22;23.70;99.90
43087;DHT22;28708;52.224;6.924;2022-07-23T13:45:48;23.70;99.90
43087;DHT22;28708;52.224;6.924;2022-07-23T13:48:15;24.30;99.90
43087;DHT22;28708;52.224;6.924;2022-07-23T13:50:44;24.70;99.90
43087;DHT22;28708;52.224;6.924;2022-07-23T13:53:13;24.90;99.80
43087;DHT22;28708;52.224;6.924;2022-07-23T13:55:40;25.30;98.70
43087;DHT22;28708;52.224;6.924;2022-07-23T13:58:07;25.60;98.90
43087;DHT22;28708;52.224;6.924;2022-07-23T14:00:35;25.90;97.90
43087;DHT22;28708;52.224;6.924;2022-07-23T14:03:01;25.50;97.90
43087;DHT22;28708;52.224;6.924;2022-07-23T14:05:27;25.30;98.70
43087;DHT22;28708;52.224;6.924;2022-07-23T14:07:53;24.80;98.40
43087;DHT22;28708;52.224;6.924;2022-07-23T14:10:20;24.60;99.90
43087;DHT22;28708;52.224;6.924;2022-07-23T14:12:48;25.20;99.90
43087;DHT22;28708;52.224;6.924;2022-07-23T14:15:15;25.90;98.90
43087;DHT22;28708;52.224;6.924;2022-07-23T14:17:42;25.70;98.30
43087;DHT22;28708;52.224;6.924;2022-07-23T14:20:10;25.60;98.40
43087;DHT22;28708;52.224;6.924;2022-07-23T14:22:36;25.90;97.50
43087;DHT22;28708;52.224;6.924;2022-07-23T14:25:03;25.80;98.10
43087;DHT22;28708;52.224;6.924;2022-07-23T14:27:30;25.90;96.70
43087;DHT22;28708;52.224;6.924;2022-07-23T14:29:55;25.90;97.70
43087;DHT22;28708;52.224;6.924;2022-07-23T14:32:22;26.10;96.20
43087;DHT22;28708;52.224;6.924;2022-07-23T14:34:48;26.30;96.40
43087;DHT22;28708;52.224;6.924;2022-07-23T14:37:15;26.20;96.00
43087;DHT22;28708;52.224;6.924;2022-07-23T14:39:42;26.00;96.40
43087;DHT22;28708;52.224;6.924;2022-07-23T14:42:09;26.10;95.80
43087;DHT22;28708;52.224;6.924;2022-07-23T14:44:36;26.00;96.60
43087;DHT22;28708;52.224;6.924;2022-07-23T14:47:03;25.70;97.40
43087;DHT22;28708;52.224;6.924;2022-07-23T14:49:30;26.00;96.60
43087;DHT22;28708;52.224;6.924;2022-07-23T14:51:57;26.10;96.80
43087;DHT22;28708;52.224;6.924;2022-07-23T14:54:23;26.30;94.70
43087;DHT22;28708;52.224;6.924;2022-07-23T14:56:52;26.20;95.30
43087;DHT22;28708;52.224;6.924;2022-07-23T14:59:18;26.30;95.10
43087;DHT22;28708;52.224;6.924;2022-07-23T15:01:44;26.10;95.50
43087;DHT22;28708;52.224;6.924;2022-07-23T15:04:10;26.00;96.40
43087;DHT22;28708;52.224;6.924;2022-07-23T15:06:36;26.00;94.70
43087;DHT22;28708;52.224;6.924;2022-07-23T15:09:02;26.10;95.30
43087;DHT22;28708;52.224;6.924;2022-07-23T15:11:28;26.00;95.50
43087;DHT22;28708;52.224;6.924;2022-07-23T15:13:57;25.90;95.20
43087;DHT22;28708;52.224;6.924;2022-07-23T15:16:23;25.90;96.80
43087;DHT22;28708;52.224;6.924;2022-07-23T15:18:49;25.70;96.20
43087;DHT22;28708;52.224;6.924;2022-07-23T15:21:15;25.80;96.50
43087;DHT22;28708;52.224;6.924;2022-07-23T15:23:41;25.70;96.70
43087;DHT22;28708;52.224;6.924;2022-07-23T15:26:07;25.80;96.00
43087;DHT22;28708;52.224;6.924;2022-07-23T15:28:34;26.20;95.70
43087;DHT22;28708;52.224;6.924;2022-07-23T15:31:00;26.20;95.60
43087;DHT22;28708;52.224;6.924;2022-07-23T15:33:26;26.20;95.20
43087;DHT22;28708;52.224;6.924;2022-07-23T15:35:52;26.10;96.00
43087;DHT22;28708;52.224;6.924;2022-07-23T15:38:20;25.70;96.30
43087;DHT22;28708;52.224;6.924;2022-07-23T15:40:46;25.20;96.40
43087;DHT22;28708;52.224;6.924;2022-07-23T15:43:14;24.70;97.00
43087;DHT22;28708;52.224;6.924;2022-07-23T15:45:40;24.40;98.60
43087;DHT22;28708;52.224;6.924;2022-07-23T15:48:07;24.30;99.90
43087;DHT22;28708;52.224;6.924;2022-07-23T15:50:33;24.20;99.90
43087;DHT22;28708;52.224;6.924;2022-07-23T15:52:58;24.60;99.90
43087;DHT22;28708;52.224;6.924;2022-07-23T15:55:25;25.20;99.00
43087;DHT22;28708;52.224;6.924;2022-07-23T15:57:51;25.30;98.60
43087;DHT22;28708;52.224;6.924;2022-07-23T16:00:17;25.30;99.90
43087;DHT22;28708;52.224;6.924;2022-07-23T16:02:43;25.30;99.60
43087;DHT22;28708;52.224;6.924;2022-07-23T16:05:09;25.30;99.90
43087;DHT22;28708;52.224;6.924;2022-07-23T16:07:35;25.30;99.40
43087;DHT22;28708;52.224;6.924;2022-07-23T16:10:06;25.30;98.10
43087;DHT22;28708;52.224;6.924;2022-07-23T16:12:32;25.30;97.10
43087;DHT22;28708;52.224;6.924;2022-07-23T16:14:58;25.20;97.90
43087;DHT22;28708;52.224;6.924;2022-07-23T16:17:24;24.70;99.50
43087;DHT22;28708;52.224;6.924;2022-07-23T16:19:50;24.60;99.90
43087;DHT22;28708;52.224;6.924;2022-07-23T16:22:16;24.90;99.60
43087;DHT22;28708;52.224;6.924;2022-07-23T16:24:43;24.80;98.70
43087;DHT22;28708;52.224;6.924;2022-07-23T16:27:09;24.80;99.70
43087;DHT22;28708;52.224;6.924;2022-07-23T16:29:35;24.90;99.90
43087;DHT22;28708;52.224;6.924;2022-07-23T16:32:01;25.10;99.90